Time;durP1;ratioP1;P1;durP2;ratioP2;P2;SDS_P1;SDS_P2;PMS_P1;PMS_P2;Temp;Humidity;BMP_temperature;BMP_pressure;BME280_temperature;BME280_humidity;BME280_pressure;Samples;Min_cycle;Max_cycle;Signal;HPM_P1;HPM_P2
2023/12/16 00:00:34;;;;;;;16.77;3.42;;;7.70;99.90;;;;;;4991465;28;20130;-59
2023/12/16 00:03:00;;;;;;;14.95;4.07;;;7.70;99.90;;;;;;4991482;28;20061;-60
2023/12/16 00:05:25;;;;;;;11.50;3.83;;;7.60;99.90;;;;;;4991079;28;20487;-63
2023/12/16 00:07:51;;;;;;;16.40;3.42;;;7.70;99.90;;;;;;4979324;28;20122;-59
2023/12/16 00:10:16;;;;;;;15.27;3.60;;;7.60;99.90;;;;;;4983484;28;20038;-59
2023/12/16 00:12:42;;;;;;;10.85;2.97;;;7.60;99.90;;;;;;4991067;28;20550;-60
2023/12/16 00:15:11;;;;;;;13.27;3.60;;;7.70;99.90;;;;;;4977361;28;20080;-62
2023/12/16 00:17:37;;;;;;;12.82;3.33;;;7.70;99.90;;;;;;4990820;28;20042;-60
2023/12/16 00:20:03;;;;;;;14.02;3.58;;;7.70;99.90;;;;;;4991090;28;20161;-59
2023/12/16 00:22:29;;;;;;;15.27;3.00;;;7.70;99.90;;;;;;4981892;28;20073;-60
2023/12/16 00:24:55;;;;;;;14.48;3.50;;;7.70;99.90;;;;;;4979435;28;20476;-60
2023/12/16 00:27:21;;;;;;;11.55;3.10;;;7.60;99.90;;;;;;4990731;28;20061;-59
2023/12/16 00:29:46;;;;;;;13.35;3.78;;;7.60;99.90;;;;;;4991151;28;20411;-60
2023/12/16 00:32:12;;;;;;;13.95;3.35;;;7.60;99.90;;;;;;4991202;28;20104;-66
2023/12/16 00:34:38;;;;;;;14.45;3.40;;;7.60;99.90;;;;;;4981327;28;20193;-61
2023/12/16 00:37:06;;;;;;;18.17;3.88;;;7.60;99.90;;;;;;4984880;28;20041;-61
2023/12/16 00:39:32;;;;;;;13.43;3.63;;;7.60;99.90;;;;;;4990296;28;20039;-61
2023/12/16 00:41:58;;;;;;;15.75;3.55;;;7.60;99.90;;;;;;4990527;28;20683;-62
2023/12/16 00:44:24;;;;;;;15.60;3.20;;;7.60;99.90;;;;;;4991053;28;20395;-61
2023/12/16 00:46:49;;;;;;;10.80;3.42;;;7.50;99.90;;;;;;4989709;28;20038;-60
2023/12/16 00:49:15;;;;;;;13.10;3.13;;;7.50;99.90;;;;;;4973420;28;20146;-61
2023/12/16 00:51:40;;;;;;;15.40;3.67;;;7.50;99.90;;;;;;4990835;28;20035;-66
2023/12/16 00:54:06;;;;;;;14.50;4.07;;;7.50;99.90;;;;;;4990059;28;20039;-60
2023/12/16 00:56:32;;;;;;;14.02;4.20;;;7.40;99.90;;;;;;4982084;28;20514;-61
2023/12/16 00:58:57;;;;;;;15.60;3.78;;;7.40;99.90;;;;;;4989908;28;20059;-63
2023/12/16 01:01:23;;;;;;;15.18;3.50;;;7.40;99.90;;;;;;4990208;28;20034;-64
2023/12/16 01:03:49;;;;;;;12.23;3.45;;;7.30;99.90;;;;;;4990182;28;20522;-61
2023/12/16 01:06:14;;;;;;;18.23;3.63;;;7.30;99.90;;;;;;4990229;28;20187;-60
2023/12/16 01:08:42;;;;;;;16.52;4.15;;;7.30;99.90;;;;;;4975251;28;20049;-60
2023/12/16 01:11:07;;;;;;;12.82;3.20;;;7.30;99.90;;;;;;4973563;28;20042;-63
2023/12/16 01:13:33;;;;;;;14.45;3.97;;;7.20;99.90;;;;;;4978913;28;20116;-61
2023/12/16 01:15:58;;;;;;;14.05;3.65;;;7.20;99.90;;;;;;4994496;28;20104;-61
2023/12/16 01:18:24;;;;;;;16.40;3.65;;;7.10;99.90;;;;;;4993867;28;20030;-61
2023/12/16 01:20:51;;;;;;;16.58;4.00;;;7.10;99.90;;;;;;4993978;28;20574;-61
2023/12/16 01:23:16;;;;;;;14.07;3.30;;;7.10;99.90;;;;;;4994280;28;20081;-61
2023/12/16 01:25:42;;;;;;;13.50;3.47;;;7.00;99.90;;;;;;4993486;28;20422;-61
2023/12/16 01:28:07;;;;;;;12.98;3.10;;;7.00;99.90;;;;;;4994040;28;20034;-61
2023/12/16 01:30:33;;;;;;;12.63;3.78;;;7.00;99.90;;;;;;4994328;28;20108;-61
2023/12/16 01:32:58;;;;;;;13.73;3.25;;;6.90;99.90;;;;;;4994736;28;20042;-61
2023/12/16 01:35:24;;;;;;;13.35;3.83;;;6.90;99.90;;;;;;4993948;28;20034;-61
2023/12/16 01:37:49;;;;;;;11.45;3.13;;;6.90;99.90;;;;;;4992960;28;20038;-60
2023/12/16 01:40:15;;;;;;;13.93;3.67;;;6.90;99.90;;;;;;4994375;28;20041;-61
2023/12/16 01:42:41;;;;;;;12.93;3.47;;;6.80;99.90;;;;;;4994130;28;20113;-61
2023/12/16 01:45:07;;;;;;;9.75;2.92;;;6.80;99.90;;;;;;4993299;28;20085;-64
2023/12/16 01:47:33;;;;;;;13.18;3.22;;;6.70;99.90;;;;;;4993680;28;20034;-63
2023/12/16 01:49:59;;;;;;;13.95;3.50;;;6.70;99.90;;;;;;4994026;28;20476;-63
2023/12/16 01:52:25;;;;;;;11.70;3.00;;;6.70;99.90;;;;;;4993604;28;20069;-63
2023/12/16 01:54:51;;;;;;;14.50;3.10;;;6.60;99.90;;;;;;4993305;28;20515;-63
2023/12/16 01:57:17;;;;;;;11.90;3.13;;;6.60;99.90;;;;;;4993765;28;20050;-61
2023/12/16 01:59:42;;;;;;;12.95;3.67;;;6.60;99.90;;;;;;4981025;28;20038;-60
2023/12/16 02:02:10;;;;;;;11.75;2.67;;;6.60;99.90;;;;;;4986683;28;20037;-64
2023/12/16 02:04:37;;;;;;;13.73;3.53;;;6.60;99.90;;;;;;4993241;28;20513;-63
2023/12/16 02:07:04;;;;;;;15.85;4.03;;;6.60;99.90;;;;;;4992685;28;20039;-61
2023/12/16 02:09:30;;;;;;;14.77;2.80;;;6.60;99.90;;;;;;4993530;28;20458;-64
2023/12/16 02:11:55;;;;;;;15.18;3.83;;;6.60;99.90;;;;;;4993138;28;20114;-63
2023/12/16 02:14:21;;;;;;;13.60;3.15;;;6.60;99.90;;;;;;4993306;28;20044;-62
2023/12/16 02:16:46;;;;;;;12.80;3.13;;;6.60;99.90;;;;;;4992972;28;20042;-64
2023/12/16 02:19:17;;;;;;;15.63;3.33;;;6.60;99.90;;;;;;4985094;28;20093;-64
2023/12/16 02:21:43;;;;;;;13.98;3.33;;;6.60;99.90;;;;;;4993195;28;20057;-60
2023/12/16 02:24:08;;;;;;;13.25;4.43;;;6.50;99.90;;;;;;4993708;28;20483;-63
2023/12/16 02:26:34;;;;;;;13.57;3.03;;;6.50;99.90;;;;;;4992929;28;20108;-64
2023/12/16 02:29:00;;;;;;;14.25;2.90;;;6.60;99.90;;;;;;4992659;28;20503;-63
2023/12/16 02:31:25;;;;;;;14.00;3.65;;;6.50;99.90;;;;;;4993066;28;20026;-62
2023/12/16 02:33:51;;;;;;;14.82;3.03;;;6.50;99.90;;;;;;4992534;28;20045;-63
2023/12/16 02:36:17;;;;;;;11.85;3.50;;;6.50;99.90;;;;;;4975500;28;20372;-64
2023/12/16 02:38:42;;;;;;;12.88;3.10;;;6.50;99.90;;;;;;4976444;28;20418;-63
2023/12/16 02:41:08;;;;;;;11.70;3.15;;;6.50;99.90;;;;;;4985137;28;20038;-63
2023/12/16 02:43:33;;;;;;;11.35;3.00;;;6.50;99.90;;;;;;4981830;28;20561;-63
2023/12/16 02:45:59;;;;;;;12.63;3.38;;;6.50;99.90;;;;;;4992462;28;20046;-64
2023/12/16 02:48:25;;;;;;;14.02;3.40;;;6.50;99.90;;;;;;4992162;28;20036;-65
2023/12/16 02:50:50;;;;;;;17.55;3.65;;;6.50;99.90;;;;;;4992629;28;20046;-63
2023/12/16 02:53:16;;;;;;;15.23;3.53;;;6.50;99.90;;;;;;4993172;28;20534;-62
2023/12/16 02:55:41;;;;;;;16.98;4.45;;;6.50;99.90;;;;;;4992630;28;20314;-64
2023/12/16 02:58:07;;;;;;;14.18;3.67;;;6.50;99.90;;;;;;4992095;28;20045;-65
2023/12/16 03:00:32;;;;;;;16.92;3.53;;;6.50;99.90;;;;;;4992810;28;20076;-63
2023/12/16 03:02:58;;;;;;;13.90;3.40;;;6.50;99.90;;;;;;4992392;28;20038;-64
2023/12/16 03:05:23;;;;;;;14.57;3.83;;;6.40;99.90;;;;;;4992545;28;20120;-64
2023/12/16 03:07:49;;;;;;;14.57;3.47;;;6.40;99.90;;;;;;4992638;28;20081;-63
2023/12/16 03:10:15;;;;;;;14.48;3.38;;;6.40;99.90;;;;;;4992440;28;20438;-64
2023/12/16 03:12:41;;;;;;;11.52;3.92;;;6.40;99.90;;;;;;4992598;28;20026;-63
2023/12/16 03:15:07;;;;;;;17.67;3.35;;;6.40;99.90;;;;;;4986355;28;20444;-61
2023/12/16 03:17:33;;;;;;;18.45;3.40;;;6.40;99.90;;;;;;4992117;28;20609;-64
2023/12/16 03:19:59;;;;;;;14.70;3.63;;;6.40;99.90;;;;;;4991688;28;20046;-63
2023/12/16 03:22:24;;;;;;;16.45;3.70;;;6.30;99.90;;;;;;4973627;28;20043;-63
2023/12/16 03:24:50;;;;;;;15.18;3.20;;;6.30;99.90;;;;;;4992060;28;20038;-64
2023/12/16 03:27:15;;;;;;;14.45;3.72;;;6.30;99.90;;;;;;4991532;28;20517;-60
2023/12/16 03:29:41;;;;;;;21.08;3.90;;;6.30;99.90;;;;;;4992580;28;20042;-63
2023/12/16 03:32:07;;;;;;;17.52;3.55;;;6.30;99.90;;;;;;4991928;28;20053;-64
2023/12/16 03:34:32;;;;;;;15.70;3.50;;;6.30;99.90;;;;;;4991625;28;20121;-64
2023/12/16 03:36:58;;;;;;;15.65;3.30;;;6.30;99.90;;;;;;4991681;28;20046;-65
2023/12/16 03:39:24;;;;;;;15.75;3.42;;;6.30;99.90;;;;;;4990982;28;20510;-63
2023/12/16 03:41:49;;;;;;;13.90;3.60;;;6.30;99.90;;;;;;4974757;28;20042;-63
2023/12/16 03:44:15;;;;;;;16.88;3.70;;;6.30;99.90;;;;;;4991715;28;20046;-64
2023/12/16 03:46:41;;;;;;;16.58;3.55;;;6.40;99.90;;;;;;4990462;28;20042;-60
2023/12/16 03:49:06;;;;;;;15.88;3.58;;;6.40;99.90;;;;;;4991219;28;20503;-61
2023/12/16 03:51:32;;;;;;;16.25;2.95;;;6.40;99.90;;;;;;4974026;28;20072;-63
2023/12/16 03:53:57;;;;;;;13.68;3.42;;;6.40;99.90;;;;;;4991126;28;20034;-61
2023/12/16 03:56:23;;;;;;;14.55;3.22;;;6.40;99.90;;;;;;4991679;28;20073;-60
2023/12/16 03:58:48;;;;;;;12.32;3.10;;;6.40;99.90;;;;;;4990311;28;20490;-60
2023/12/16 04:01:14;;;;;;;15.43;3.13;;;6.40;99.90;;;;;;4991047;28;20034;-61
2023/12/16 04:03:40;;;;;;;16.67;3.67;;;6.50;99.90;;;;;;4973613;28;20164;-60
2023/12/16 04:06:12;;;;;;;10.48;3.15;;;6.50;99.90;;;;;;4990962;28;20125;-66
2023/12/16 04:08:39;;;;;;;19.77;3.53;;;6.50;99.90;;;;;;4990416;28;20527;-66
2023/12/16 04:11:05;;;;;;;17.35;3.67;;;6.50;99.90;;;;;;4974266;28;20487;-62
2023/12/16 04:13:30;;;;;;;16.17;4.30;;;6.50;99.90;;;;;;4991239;28;20533;-62
2023/12/16 04:15:56;;;;;;;17.33;3.80;;;6.50;99.90;;;;;;4990198;28;20050;-62
2023/12/16 04:18:23;;;;;;;20.80;3.75;;;6.50;99.90;;;;;;4990318;28;20589;-62
2023/12/16 04:20:49;;;;;;;19.50;3.95;;;6.50;99.90;;;;;;4973169;28;20070;-63
2023/12/16 04:23:14;;;;;;;14.15;3.35;;;6.50;99.90;;;;;;4991452;28;20467;-63
2023/12/16 04:25:40;;;;;;;13.43;3.10;;;6.50;99.90;;;;;;4990890;28;20041;-63
2023/12/16 04:28:06;;;;;;;19.02;4.25;;;6.50;99.90;;;;;;4977841;28;20077;-63
2023/12/16 04:30:32;;;;;;;17.10;4.10;;;6.40;99.90;;;;;;4991381;28;20081;-63
2023/12/16 04:32:58;;;;;;;15.75;3.90;;;6.50;99.90;;;;;;4990650;28;20034;-63
2023/12/16 04:35:23;;;;;;;20.33;3.53;;;6.50;99.90;;;;;;4990955;28;20510;-62
2023/12/16 04:37:49;;;;;;;15.60;3.38;;;6.50;99.90;;;;;;4990455;28;20043;-62
2023/12/16 04:40:15;;;;;;;14.23;3.35;;;6.50;99.90;;;;;;4991407;28;20062;-63
2023/12/16 04:42:41;;;;;;;13.88;3.25;;;6.50;99.90;;;;;;4990788;28;20497;-63
2023/12/16 04:45:08;;;;;;;16.35;3.40;;;6.50;99.90;;;;;;4973734;28;20042;-61
2023/12/16 04:47:36;;;;;;;24.20;3.95;;;6.50;99.90;;;;;;4989839;28;20043;-62
2023/12/16 04:50:03;;;;;;;18.00;3.90;;;6.50;99.90;;;;;;4989768;28;20049;-63
2023/12/16 04:52:28;;;;;;;19.98;3.72;;;6.50;99.90;;;;;;4973351;28;20449;-63
2023/12/16 04:54:54;;;;;;;18.23;4.65;;;6.50;99.90;;;;;;4990301;28;20125;-63
2023/12/16 04:57:19;;;;;;;17.58;4.80;;;6.50;99.90;;;;;;4990811;28;20038;-62
2023/12/16 04:59:45;;;;;;;27.38;4.80;;;6.50;99.90;;;;;;4989270;28;20125;-63
2023/12/16 05:02:11;;;;;;;26.20;4.80;;;6.50;99.90;;;;;;4990519;28;20045;-63
2023/12/16 05:04:36;;;;;;;19.55;4.63;;;6.50;99.90;;;;;;4990466;28;20046;-63
2023/12/16 05:07:02;;;;;;;19.88;4.03;;;6.50;99.90;;;;;;4989734;28;20042;-62
2023/12/16 05:09:28;;;;;;;19.52;4.32;;;6.50;99.90;;;;;;4990428;28;20046;-61
2023/12/16 05:11:53;;;;;;;20.02;4.30;;;6.50;99.90;;;;;;4989823;28;20044;-63
2023/12/16 05:14:19;;;;;;;21.45;4.40;;;6.50;99.90;;;;;;4990445;28;20030;-63
2023/12/16 05:16:45;;;;;;;18.38;4.65;;;6.50;99.90;;;;;;4989568;28;20054;-63
2023/12/16 05:19:10;;;;;;;20.33;4.20;;;6.50;99.90;;;;;;4989774;28;20101;-62
2023/12/16 05:21:36;;;;;;;21.25;4.47;;;6.40;99.90;;;;;;4990499;28;20042;-63
2023/12/16 05:24:01;;;;;;;17.83;4.22;;;6.40;99.90;;;;;;4990181;28;20129;-63
2023/12/16 05:26:27;;;;;;;15.85;4.07;;;6.30;99.90;;;;;;4990090;28;20050;-63
2023/12/16 05:28:52;;;;;;;17.95;4.63;;;6.30;99.90;;;;;;4989890;28;20061;-62
2023/12/16 05:31:18;;;;;;;17.88;4.07;;;6.30;99.90;;;;;;4990354;28;20049;-63
2023/12/16 05:33:44;;;;;;;20.25;4.55;;;6.20;99.90;;;;;;4990566;28;20038;-63
2023/12/16 05:36:10;;;;;;;23.52;4.80;;;6.20;99.90;;;;;;4989401;28;20057;-63
2023/12/16 05:38:35;;;;;;;24.20;5.32;;;6.10;99.90;;;;;;4989638;28;20030;-62
2023/12/16 05:41:02;;;;;;;16.48;4.70;;;6.10;99.90;;;;;;4989951;28;20403;-62
2023/12/16 05:43:27;;;;;;;16.00;4.22;;;6.10;99.90;;;;;;4990291;28;20450;-63
2023/12/16 05:45:53;;;;;;;15.70;4.85;;;6.10;99.90;;;;;;4989011;28;20042;-62
2023/12/16 05:48:19;;;;;;;25.02;5.35;;;6.00;99.90;;;;;;4990114;28;20406;-62
2023/12/16 05:50:45;;;;;;;17.77;4.93;;;6.10;99.90;;;;;;4990129;28;20078;-63
2023/12/16 05:53:10;;;;;;;19.13;4.63;;;6.00;99.90;;;;;;4990203;28;20114;-62
2023/12/16 05:55:36;;;;;;;17.55;4.32;;;6.00;99.90;;;;;;4989890;28;20035;-62
2023/12/16 05:58:02;;;;;;;23.15;5.57;;;6.00;99.90;;;;;;4989458;28;20510;-61
2023/12/16 06:00:27;;;;;;;19.02;4.88;;;6.00;99.90;;;;;;4993275;28;20108;-62
2023/12/16 06:02:53;;;;;;;19.95;5.40;;;6.00;99.90;;;;;;4993478;28;20041;-62
2023/12/16 06:05:19;;;;;;;17.50;5.10;;;6.00;99.90;;;;;;4992433;28;20092;-60
2023/12/16 06:07:44;;;;;;;23.05;5.40;;;5.90;99.90;;;;;;4994071;28;20044;-60
2023/12/16 06:10:11;;;;;;;22.33;5.22;;;6.00;99.90;;;;;;4993077;28;20042;-62
2023/12/16 06:12:37;;;;;;;28.05;5.57;;;5.90;99.90;;;;;;4979909;28;20137;-60
2023/12/16 06:15:03;;;;;;;25.80;6.15;;;5.90;99.90;;;;;;4992491;28;20038;-60
2023/12/16 06:17:28;;;;;;;19.42;5.00;;;5.90;99.90;;;;;;5000006;28;20412;-60
2023/12/16 06:19:54;;;;;;;25.15;5.32;;;5.80;99.90;;;;;;4993516;28;20037;-65
2023/12/16 06:22:20;;;;;;;17.80;5.68;;;5.80;99.90;;;;;;4975518;28;20479;-60
2023/12/16 06:24:45;;;;;;;21.55;5.43;;;5.80;99.90;;;;;;4991858;28;20074;-60
2023/12/16 06:27:11;;;;;;;23.92;6.07;;;5.80;99.90;;;;;;4992341;28;20041;-60
2023/12/16 06:29:38;;;;;;;25.02;5.80;;;5.80;99.90;;;;;;4975458;28;20050;-62
2023/12/16 06:32:04;;;;;;;21.25;5.57;;;5.70;99.90;;;;;;4992591;28;20788;-68
2023/12/16 06:34:30;;;;;;;18.13;5.93;;;5.70;99.90;;;;;;4992528;28;20030;-60
2023/12/16 06:36:55;;;;;;;23.52;5.35;;;5.70;99.90;;;;;;4992777;28;20077;-62
2023/12/16 06:39:21;;;;;;;25.27;5.85;;;5.70;99.90;;;;;;4992843;28;20038;-61
2023/12/16 06:41:46;;;;;;;22.55;5.80;;;5.70;99.90;;;;;;4988884;28;20038;-64
2023/12/16 06:44:12;;;;;;;22.60;5.75;;;5.70;99.90;;;;;;4991374;28;20906;-62
2023/12/16 06:46:38;;;;;;;23.67;5.55;;;5.70;99.90;;;;;;4991582;28;20039;-61
2023/12/16 06:49:03;;;;;;;23.67;6.72;;;5.70;99.90;;;;;;4973154;28;20112;-61
2023/12/16 06:51:29;;;;;;;25.73;5.90;;;5.70;99.90;;;;;;4992517;28;20042;-62
2023/12/16 06:53:54;;;;;;;22.65;6.30;;;5.60;99.90;;;;;;4991814;28;20042;-62
2023/12/16 06:56:20;;;;;;;21.45;5.72;;;5.60;99.90;;;;;;4987032;28;20046;-61
2023/12/16 06:58:47;;;;;;;22.35;6.03;;;5.60;99.90;;;;;;4989580;28;20455;-61
2023/12/16 07:01:14;;;;;;;27.45;6.60;;;5.60;99.90;;;;;;4991799;28;20538;-63
2023/12/16 07:03:39;;;;;;;26.48;6.43;;;5.60;99.90;;;;;;4991798;28;20038;-61
2023/12/16 07:06:06;;;;;;;26.58;6.82;;;5.60;99.90;;;;;;4991458;28;20061;-65
2023/12/16 07:08:31;;;;;;;23.58;6.32;;;5.60;99.90;;;;;;4991964;28;20034;-63
2023/12/16 07:10:57;;;;;;;21.80;6.60;;;5.50;99.90;;;;;;4990523;28;20042;-64
2023/12/16 07:13:23;;;;;;;17.88;6.53;;;5.50;99.90;;;;;;4992040;28;20112;-61
2023/12/16 07:15:48;;;;;;;17.95;5.82;;;5.60;99.90;;;;;;4992116;28;20494;-62
2023/12/16 07:18:14;;;;;;;15.70;6.05;;;5.60;99.90;;;;;;4991352;28;20038;-62
2023/12/16 07:20:40;;;;;;;24.50;6.97;;;5.60;99.90;;;;;;4972113;28;20042;-65
2023/12/16 07:23:05;;;;;;;24.58;6.60;;;5.50;99.90;;;;;;4986572;28;20030;-61
2023/12/16 07:25:31;;;;;;;25.30;6.82;;;5.60;99.90;;;;;;4977651;28;20043;-62
2023/12/16 07:27:57;;;;;;;27.17;7.40;;;5.60;99.90;;;;;;4986903;28;20073;-61
2023/12/16 07:30:22;;;;;;;29.58;6.88;;;5.60;99.90;;;;;;4990188;28;20030;-62
2023/12/16 07:32:48;;;;;;;20.35;6.05;;;5.60;99.90;;;;;;4990725;28;20077;-64
2023/12/16 07:35:15;;;;;;;23.38;6.75;;;5.60;99.90;;;;;;4990744;28;20030;-61
2023/12/16 07:37:41;;;;;;;24.98;6.60;;;5.60;99.90;;;;;;4990233;28;20100;-62
2023/12/16 07:40:10;;;;;;;26.05;6.85;;;5.60;99.90;;;;;;4990561;28;20085;-61
2023/12/16 07:42:37;;;;;;;27.95;7.53;;;5.60;99.90;;;;;;4991121;28;20065;-61
2023/12/16 07:45:04;;;;;;;24.38;6.88;;;5.60;99.90;;;;;;4991052;28;20479;-62
2023/12/16 07:47:31;;;;;;;29.95;7.20;;;5.60;99.90;;;;;;4991553;28;20034;-61
2023/12/16 07:49:56;;;;;;;30.30;7.07;;;5.70;99.90;;;;;;4972826;28;20044;-64
2023/12/16 07:52:22;;;;;;;22.75;6.50;;;5.70;99.90;;;;;;4991387;28;20459;-62
2023/12/16 07:54:48;;;;;;;27.15;6.50;;;5.70;99.90;;;;;;4990989;28;20041;-62
2023/12/16 07:57:13;;;;;;;33.20;7.55;;;5.70;99.90;;;;;;4991895;28;20057;-62
2023/12/16 07:59:43;;;;;;;22.48;6.57;;;5.80;99.90;;;;;;4990999;28;20417;-62
2023/12/16 08:02:09;;;;;;;25.33;6.88;;;5.90;99.90;;;;;;4990845;28;20407;-64
2023/12/16 08:04:35;;;;;;;27.42;8.27;;;5.90;99.90;;;;;;4990854;28;20128;-65
2023/12/16 08:07:02;;;;;;;36.28;7.40;;;6.00;99.90;;;;;;4991139;28;20093;-62
2023/12/16 08:09:27;;;;;;;22.92;6.78;;;6.00;99.90;;;;;;4991157;28;20075;-63
2023/12/16 08:11:58;;;;;;;30.50;7.53;;;6.00;99.90;;;;;;4973555;28;20213;-63
2023/12/16 08:14:28;;;;;;;31.50;7.63;;;6.10;99.90;;;;;;4984662;28;20407;-62
2023/12/16 08:16:54;;;;;;;25.75;8.25;;;6.10;99.90;;;;;;4978694;28;20051;-62
2023/12/16 08:19:19;;;;;;;25.10;7.10;;;6.20;99.90;;;;;;4990857;28;20041;-62
2023/12/16 08:21:45;;;;;;;30.75;7.80;;;6.20;99.90;;;;;;4990917;28;20121;-64
2023/12/16 08:24:11;;;;;;;28.08;7.35;;;6.30;99.90;;;;;;4974347;28;20043;-62
2023/12/16 08:26:36;;;;;;;30.48;8.25;;;6.30;99.90;;;;;;4990854;28;20042;-62
2023/12/16 08:29:02;;;;;;;41.13;8.63;;;6.30;99.90;;;;;;4990533;28;20045;-61
2023/12/16 08:31:28;;;;;;;29.38;7.38;;;6.40;99.90;;;;;;4990677;28;20042;-62
2023/12/16 08:33:54;;;;;;;27.35;7.28;;;6.40;99.90;;;;;;4990221;28;20410;-62
2023/12/16 08:36:20;;;;;;;27.88;7.00;;;6.50;99.90;;;;;;4990985;28;20046;-65
2023/12/16 08:38:45;;;;;;;31.30;7.22;;;6.50;99.90;;;;;;4990411;28;20035;-61
2023/12/16 08:41:12;;;;;;;29.00;7.38;;;6.60;99.90;;;;;;4989952;28;20108;-62
2023/12/16 08:43:38;;;;;;;31.10;8.30;;;6.60;99.90;;;;;;4990284;28;20049;-61
2023/12/16 08:46:04;;;;;;;31.15;8.68;;;6.60;99.90;;;;;;4990081;28;20411;-61
2023/12/16 08:48:30;;;;;;;27.98;9.18;;;6.70;99.90;;;;;;4990690;28;20038;-61
2023/12/16 08:50:58;;;;;;;37.60;7.68;;;6.70;99.90;;;;;;4989630;28;20045;-61
2023/12/16 08:53:24;;;;;;;27.83;7.40;;;6.70;99.90;;;;;;4990719;28;20073;-61
2023/12/16 08:55:50;;;;;;;28.17;7.72;;;6.80;99.90;;;;;;4989966;28;20045;-61
2023/12/16 08:58:16;;;;;;;32.53;7.40;;;6.80;99.90;;;;;;4989955;28;20031;-62
2023/12/16 09:00:42;;;;;;;26.15;7.15;;;6.80;99.90;;;;;;4990342;28;20100;-61
2023/12/16 09:03:08;;;;;;;31.30;7.18;;;6.90;99.90;;;;;;4988579;28;20480;-61
2023/12/16 09:05:34;;;;;;;31.35;7.75;;;6.90;99.90;;;;;;4989593;28;20105;-61
2023/12/16 09:07:59;;;;;;;26.38;8.07;;;6.90;99.90;;;;;;4989135;28;20038;-62
2023/12/16 09:10:25;;;;;;;28.58;8.13;;;7.00;99.90;;;;;;4990503;28;20113;-62
2023/12/16 09:12:51;;;;;;;30.55;8.02;;;7.00;99.90;;;;;;4989834;28;20484;-63
2023/12/16 09:15:17;;;;;;;26.30;8.02;;;7.00;99.90;;;;;;4989706;28;20038;-64
2023/12/16 09:17:44;;;;;;;25.00;8.07;;;7.00;99.90;;;;;;4981645;28;20077;-64
2023/12/16 09:20:10;;;;;;;32.90;7.35;;;7.00;99.90;;;;;;4972420;28;20049;-64
2023/12/16 09:22:36;;;;;;;32.70;7.70;;;7.10;99.90;;;;;;4989052;28;20034;-62
2023/12/16 09:25:04;;;;;;;30.20;8.25;;;7.10;99.90;;;;;;4989087;28;20072;-63
2023/12/16 09:27:29;;;;;;;34.90;8.38;;;7.20;99.90;;;;;;4989300;28;20050;-63
2023/12/16 09:29:55;;;;;;;32.30;9.82;;;7.20;99.90;;;;;;4989759;28;20156;-64
2023/12/16 09:32:21;;;;;;;33.13;7.47;;;7.20;99.90;;;;;;4987174;28;20035;-64
2023/12/16 09:34:47;;;;;;;29.17;7.80;;;7.20;99.90;;;;;;4989875;28;20038;-64
2023/12/16 09:37:14;;;;;;;29.33;8.23;;;7.20;99.90;;;;;;4994913;28;20098;-63
2023/12/16 09:39:40;;;;;;;36.83;8.57;;;7.20;99.90;;;;;;4994094;28;20101;-63
2023/12/16 09:42:06;;;;;;;31.73;8.32;;;7.30;99.90;;;;;;4994084;28;20074;-63
2023/12/16 09:44:40;;;;;;;31.83;8.38;;;7.30;99.90;;;;;;4993152;28;20096;-62
2023/12/16 09:47:08;;;;;;;34.55;8.70;;;7.30;99.90;;;;;;5007344;23;20092;-65
2023/12/16 09:49:36;;;;;;;25.17;8.18;;;7.30;99.90;;;;;;4988987;28;20046;-65
2023/12/16 09:52:01;;;;;;;37.15;7.90;;;7.30;99.90;;;;;;4981766;28;20035;-66
2023/12/16 09:54:27;;;;;;;36.90;8.30;;;7.30;99.90;;;;;;4973379;28;20491;-65
2023/12/16 09:56:55;;;;;;;36.60;9.15;;;7.30;99.90;;;;;;4971178;28;20089;-65
2023/12/16 09:59:23;;;;;;;29.05;7.93;;;7.30;99.90;;;;;;4972968;28;20446;-65
2023/12/16 10:01:52;;;;;;;32.00;7.82;;;7.30;99.90;;;;;;4973384;28;20418;-65
2023/12/16 10:04:18;;;;;;;32.05;8.15;;;7.40;99.90;;;;;;4989403;28;20054;-63
2023/12/16 10:06:44;;;;;;;29.35;8.02;;;7.30;99.90;;;;;;4974417;28;20094;-63
2023/12/16 10:09:09;;;;;;;33.85;9.25;;;7.30;99.90;;;;;;4975451;28;20470;-63
2023/12/16 10:11:40;;;;;;;37.90;8.80;;;7.40;99.90;;;;;;4973430;28;20035;-63
2023/12/16 10:14:05;;;;;;;30.95;8.70;;;7.40;99.90;;;;;;4971973;28;20054;-63
2023/12/16 10:16:31;;;;;;;25.42;8.02;;;7.40;99.90;;;;;;4973566;28;20373;-63
2023/12/16 10:18:58;;;;;;;45.17;9.90;;;7.40;99.90;;;;;;4973327;28;20505;-63
2023/12/16 10:21:28;;;;;;;36.35;10.15;;;7.40;99.90;;;;;;4972257;28;20043;-63
2023/12/16 10:24:00;;;;;;;30.40;9.13;;;7.40;99.90;;;;;;4972271;28;20047;-63
2023/12/16 10:26:28;;;;;;;;;;;7.40;99.90;;;;;;4968325;28;20046;-63
2023/12/16 10:28:54;;;;;;;37.78;10.25;;;7.40;99.90;;;;;;4971968;28;19997;-63
2023/12/16 10:31:21;;;;;;;33.47;10.20;;;7.40;99.90;;;;;;4978453;28;20039;-63
2023/12/16 10:33:48;;;;;;;43.35;11.27;;;7.40;99.90;;;;;;4988700;28;20047;-62
2023/12/16 10:36:15;;;;;;;45.97;11.48;;;7.40;99.90;;;;;;4972488;28;20041;-63
2023/12/16 10:38:40;;;;;;;46.78;13.38;;;7.40;99.90;;;;;;4973745;28;20460;-63
2023/12/16 10:41:06;;;;;;;40.63;12.25;;;7.40;99.90;;;;;;4973098;28;20069;-63
2023/12/16 10:43:32;;;;;;;54.28;13.43;;;7.40;99.90;;;;;;4972133;28;20042;-63
2023/12/16 10:46:04;;;;;;;49.25;13.18;;;7.40;99.90;;;;;;4971020;28;20070;-62
2023/12/16 10:48:32;;;;;;;46.78;14.63;;;7.40;99.90;;;;;;4972364;28;20400;-61
2023/12/16 10:51:01;;;;;;;38.90;14.02;;;7.50;99.90;;;;;;4972900;28;20113;-62
2023/12/16 10:53:32;;;;;;;50.92;14.27;;;7.50;99.90;;;;;;4972230;28;20543;-63
2023/12/16 10:56:01;;;;;;;53.13;15.13;;;7.50;99.90;;;;;;4986223;28;20050;-63
2023/12/16 10:58:40;;;;;;;51.08;15.63;;;7.50;99.90;;;;;;4973185;28;20793;-63
2023/12/16 11:01:10;;;;;;;47.10;14.88;;;7.50;99.90;;;;;;4986639;28;20046;-60
2023/12/16 11:03:49;;;;;;;57.05;16.30;;;7.50;99.90;;;;;;4973624;28;20439;-60
2023/12/16 11:06:21;;;;;;;54.45;16.83;;;7.50;99.90;;;;;;4973652;28;20046;-64
2023/12/16 11:08:47;;;;;;;64.07;17.52;;;7.60;99.90;;;;;;4971927;28;20072;-63
2023/12/16 11:11:17;;;;;;;57.53;16.58;;;7.60;99.90;;;;;;4987499;28;20046;-63
2023/12/16 11:13:43;;;;;;;47.65;16.65;;;7.60;99.90;;;;;;4973265;28;20043;-64
2023/12/16 11:16:17;;;;;;;56.90;18.05;;;7.60;99.90;;;;;;4972668;28;20043;-63
2023/12/16 11:18:46;;;;;;;52.65;17.25;;;7.60;99.90;;;;;;4972625;28;20050;-63
2023/12/16 11:21:14;;;;;;;52.63;17.10;;;7.60;99.90;;;;;;4972784;28;20042;-63
2023/12/16 11:23:46;;;;;;;62.70;18.85;;;7.60;99.90;;;;;;4973336;28;20046;-63
2023/12/16 11:26:12;;;;;;;44.50;18.15;;;7.60;99.90;;;;;;4973866;28;20381;-63
2023/12/16 11:28:37;;;;;;;52.47;18.63;;;7.60;99.90;;;;;;4987614;28;20042;-63
2023/12/16 11:31:03;;;;;;;64.47;18.73;;;7.70;99.90;;;;;;4971529;28;20034;-64
2023/12/16 11:33:46;;;;;;;55.63;18.17;;;7.70;99.90;;;;;;4976860;28;20042;-63
2023/12/16 11:36:12;;;;;;;63.35;17.85;;;7.70;99.90;;;;;;4971638;28;20062;-63
2023/12/16 11:38:43;;;;;;;51.10;17.83;;;7.70;99.90;;;;;;4972832;28;20046;-63
2023/12/16 11:41:41;;;;;;;52.33;17.58;;;7.80;99.90;;;;;;4976210;28;20042;-62
2023/12/16 11:44:08;;;;;;;55.72;17.98;;;7.80;99.90;;;;;;4986806;28;20051;-63
2023/12/16 11:46:42;;;;;;;52.92;18.20;;;7.80;99.90;;;;;;4972528;28;20053;-63
2023/12/16 11:49:15;;;;;;;54.65;18.92;;;7.80;99.90;;;;;;4971663;28;20054;-63
2023/12/16 11:51:41;;;;;;;58.40;18.55;;;7.80;99.90;;;;;;4974950;28;20038;-63
2023/12/16 11:54:09;;;;;;;52.42;18.17;;;7.80;99.90;;;;;;4972515;28;20035;-64
2023/12/16 11:56:35;;;;;;;50.42;18.48;;;7.90;99.90;;;;;;4974410;28;20094;-63
2023/12/16 11:59:05;;;;;;;49.78;18.40;;;7.80;99.90;;;;;;4972195;28;20046;-64
2023/12/16 12:01:32;;;;;;;59.10;18.63;;;7.90;99.90;;;;;;4971806;28;20070;-64
2023/12/16 12:03:59;;;;;;;50.85;19.38;;;7.90;99.90;;;;;;4972192;28;20439;-63
2023/12/16 12:06:25;;;;;;;50.55;18.85;;;7.90;99.90;;;;;;4972340;28;20125;-64
2023/12/16 12:08:51;;;;;;;52.10;18.77;;;7.90;99.90;;;;;;4971519;28;20495;-64
2023/12/16 12:11:18;;;;;;;47.65;18.45;;;7.90;99.90;;;;;;4971875;28;20073;-64
2023/12/16 12:13:44;;;;;;;45.88;17.90;;;7.90;99.90;;;;;;4973589;28;20397;-64
2023/12/16 12:16:12;;;;;;;53.67;19.88;;;8.00;99.90;;;;;;4968280;28;20031;-63
2023/12/16 12:18:39;;;;;;;48.13;17.80;;;8.00;99.90;;;;;;4970335;28;20149;-64
2023/12/16 12:21:06;;;;;;;45.78;18.10;;;8.00;99.90;;;;;;4971573;28;20423;-64
2023/12/16 12:23:33;;;;;;;53.00;20.00;;;8.00;99.90;;;;;;4971182;28;20510;-63
2023/12/16 12:25:58;;;;;;;50.55;18.73;;;8.00;99.90;;;;;;4971234;28;20045;-63
2023/12/16 12:28:24;;;;;;;43.00;19.02;;;8.00;99.90;;;;;;4972082;28;20030;-64
2023/12/16 12:30:49;;;;;;;45.55;17.75;;;8.00;99.90;;;;;;4969287;28;20676;-64
2023/12/16 12:33:15;;;;;;;52.15;18.48;;;8.10;99.90;;;;;;4987384;28;20134;-64
2023/12/16 12:35:41;;;;;;;48.65;18.60;;;8.10;99.90;;;;;;4974427;28;20045;-64
2023/12/16 12:38:08;;;;;;;44.55;18.33;;;8.10;99.90;;;;;;4971244;28;20027;-64
2023/12/16 12:40:33;;;;;;;56.28;19.25;;;8.10;99.90;;;;;;4974460;28;20089;-64